Time;durP1;ratioP1;P1;durP2;ratioP2;P2;SDS_P1;SDS_P2;PMS_P1;PMS_P2;Temp;Humidity;BMP_temperature;BMP_pressure;BME280_temperature;BME280_humidity;BME280_pressure;Samples;Min_cycle;Max_cycle;Signal;HPM_P1;HPM_P2
2023/07/08 00:01:19;;;;;;;6.77;6.17;;;;;;;14.22;100.00;96561.56;7396317;19;20427;-88
2023/07/08 00:03:46;;;;;;;6.10;5.50;;;;;;;14.08;100.00;96585.91;7402940;19;20949;-87
2023/07/08 00:06:29;;;;;;;5.70;5.17;;;;;;;12.35;100.00;96358.66;7418474;19;20378;-89
2023/07/08 00:08:57;;;;;;;6.13;5.53;;;;;;;13.72;100.00;96536.38;7424437;19;20430;-89
2023/07/08 00:11:26;;;;;;;7.00;6.30;;;;;;;14.29;100.00;96588.31;7424893;19;20399;-87
2023/07/08 00:13:53;;;;;;;6.70;5.70;;;;;;;12.96;100.00;96387.59;7426663;19;20435;-87
2023/07/08 00:16:20;;;;;;;6.57;5.93;;;;;;;14.07;100.00;96525.88;7406002;19;20383;-88
2023/07/08 00:18:50;;;;;;;6.33;5.57;;;;;;;13.99;100.00;96535.56;7396912;19;20423;-88
2023/07/08 00:21:17;;;;;;;6.80;6.13;;;;;;;12.71;100.00;96410.81;7397303;19;20386;-88
2023/07/08 00:28:13;;;;;;;7.43;6.20;;;;;;;13.67;100.00;96568.53;7395716;19;20409;-88
2023/07/08 00:30:50;;;;;;;6.80;5.70;;;;;;;13.47;100.00;96557.75;7393438;19;20917;-88
2023/07/08 00:34:04;;;;;;;6.67;6.07;;;;;;;12.57;100.00;96412.31;7395774;19;21014;-87
2023/07/08 00:37:42;;;;;;;6.00;5.50;;;;;;;13.55;100.00;96575.44;7392048;19;20397;-88
2023/07/08 00:41:18;;;;;;;7.70;5.20;;;;;;;13.37;100.00;96576.84;7393020;19;20401;-88
2023/07/08 00:43:48;;;;;;;5.73;5.23;;;;;;;12.52;100.00;96433.75;7392571;19;20382;-87
2023/07/08 00:46:31;;;;;;;7.50;6.57;;;;;;;13.37;100.00;96571.53;7389333;19;20414;-87
2023/07/08 00:49:07;;;;;;;6.23;5.70;;;;;;;13.55;100.00;96580.75;7387358;19;20413;-87
2023/07/08 00:51:37;;;;;;;7.17;6.27;;;;;;;12.53;100.00;96409.53;7391308;19;20478;-87
2023/07/08 00:54:10;;;;;;;9.00;6.00;;;;;;;13.49;100.00;96529.00;7389643;19;20764;-88
2023/07/08 00:57:01;;;;;;;7.87;7.20;;;;;;;12.08;100.00;96365.47;7392778;19;20374;-88
2023/07/08 00:59:43;;;;;;;6.17;5.53;;;;;;;12.27;100.00;96435.66;7392594;19;20393;-87
2023/07/08 01:02:15;;;;;;;6.90;6.10;;;;;;;12.81;100.00;96531.59;7401144;19;20556;-88
2023/07/08 01:05:15;;;;;;;5.80;5.40;;;;;;;13.56;100.00;96606.22;7396813;19;20397;-88
2023/07/08 01:07:45;;;;;;;6.40;5.90;;;;;;;13.07;100.00;96551.66;7397280;19;20424;-87
2023/07/08 01:10:17;;;;;;;8.10;5.60;;;;;;;12.87;100.00;96543.53;7401659;19;20425;-88
2023/07/08 01:12:48;;;;;;;7.47;6.67;;;;;;;10.79;100.00;96193.22;7401234;19;20466;-88
2023/07/08 01:15:16;;;;;;;16.50;7.63;;;;;;;11.92;100.00;96436.16;7403184;19;20402;-88
2023/07/08 01:17:45;;;;;;;7.13;6.43;;;;;;;12.18;100.00;96427.09;7400432;19;20436;-88
2023/07/08 01:20:12;;;;;;;10.30;7.20;;;;;;;11.63;100.00;96315.28;7403764;19;20390;-88
2023/07/08 01:22:41;;;;;;;7.23;6.63;;;;;;;13.14;100.00;96543.91;7401374;19;20732;-87
2023/07/08 01:25:10;;;;;;;11.83;7.20;;;;;;;11.99;100.00;96407.19;7401817;19;20402;-88
2023/07/08 01:27:41;;;;;;;6.03;5.53;;;;;;;12.38;100.00;96424.25;7399235;19;20965;-89
2023/07/08 01:30:10;;;;;;;8.70;7.23;;;;;;;12.38;100.00;96484.47;7403885;19;20379;-88
2023/07/08 01:32:43;;;;;;;7.07;6.47;;;;;;;12.02;100.00;96467.50;7399570;19;20736;-89
2023/07/08 01:35:12;;;;;;;7.57;6.73;;;;;;;11.64;100.00;96364.50;7400328;19;20389;-88
2023/07/08 01:37:43;;;;;;;8.63;6.63;;;;;;;12.68;100.00;96530.84;7401430;19;20422;-87
2023/07/08 01:40:30;;;;;;;9.03;8.10;;;;;;;12.34;100.00;96475.66;7401029;19;20382;-88
2023/07/08 01:42:58;;;;;;;7.37;6.77;;;;;;;11.47;100.00;96399.13;7427659;19;20370;-87
2023/07/08 01:45:30;;;;;;;6.93;6.40;;;;;;;12.28;100.00;96544.03;7426082;19;20393;-87
2023/07/08 01:48:07;;;;;;;8.17;7.20;;;;;;;10.95;100.00;96367.91;7426329;19;20436;-87
2023/07/08 01:50:48;;;;;;;8.40;7.60;;;;;;;11.15;100.00;96398.06;7427361;19;20430;-89
2023/07/08 01:53:19;;;;;;;7.60;6.13;;;;;;;10.82;100.00;96338.03;7412541;19;20399;-88
2023/07/08 01:55:46;;;;;;;8.20;6.67;;;;;;;12.00;100.00;96500.72;7399229;19;20472;-88
2023/07/08 01:58:13;;;;;;;13.87;8.10;;;;;;;11.96;100.00;96513.09;7398929;19;20453;-88
2023/07/08 02:00:40;;;;;;;7.87;7.07;;;;;;;11.24;100.00;96407.47;7397897;19;20406;-87
2023/07/08 02:03:09;;;;;;;7.53;6.67;;;;;;;11.86;100.00;96511.66;7400532;19;20391;-88
2023/07/08 02:05:36;;;;;;;8.57;7.30;;;;;;;11.52;100.00;96449.22;7397063;19;20385;-87
2023/07/08 02:08:06;;;;;;;11.00;7.60;;;;;;;10.74;100.00;96330.19;7398849;19;20434;-87
2023/07/08 02:10:33;;;;;;;6.07;5.57;;;;;;;12.13;100.00;96504.94;7401057;19;20389;-88
2023/07/08 02:13:00;;;;;;;7.03;6.43;;;;;;;11.13;100.00;96357.94;7398713;19;20461;-87
2023/07/08 02:15:29;;;;;;;10.03;6.10;;;;;;;12.56;100.00;96549.47;7400944;19;20401;-87
2023/07/08 02:17:56;;;;;;;7.13;6.03;;;;;;;11.42;100.00;96431.88;7405411;19;20433;-91
2023/07/08 02:20:23;;;;;;;6.97;6.37;;;;;;;11.90;100.00;96520.50;7435166;19;20398;-89
2023/07/08 02:22:51;;;;;;;6.57;5.80;;;;;;;12.06;100.00;96561.16;7427044;19;20407;-87
2023/07/08 02:25:18;;;;;;;7.17;6.43;;;;;;;11.33;100.00;96507.19;7399652;19;20396;-87
2023/07/08 02:27:45;;;;;;;9.03;7.67;;;;;;;11.42;100.00;96494.66;7399645;19;20410;-88
2023/07/08 02:30:12;;;;;;;7.03;6.30;;;;;;;11.04;100.00;96423.41;7401836;19;20473;-87
2023/07/08 02:32:39;;;;;;;10.13;6.60;;;;;;;9.93;100.00;96258.28;7402797;19;20399;-88
2023/07/08 02:35:07;;;;;;;10.30;7.00;;;;;;;11.78;100.00;96555.66;7404143;19;20388;-87
2023/07/08 02:37:35;;;;;;;12.23;7.07;;;;;;;11.92;100.00;96565.97;7401522;19;20417;-88
2023/07/08 02:40:02;;;;;;;9.80;7.00;;;;;;;11.71;100.00;96592.50;7399386;19;20358;-88
2023/07/08 02:42:29;;;;;;;12.90;7.13;;;;;;;11.65;100.00;96508.28;7402579;19;20406;-88
2023/07/08 02:44:56;;;;;;;7.87;7.07;;;;;;;11.37;100.00;96498.28;7398530;19;20920;-87
2023/07/08 02:47:23;;;;;;;9.73;7.07;;;;;;;11.54;100.00;96521.16;7398590;19;20430;-88
2023/07/08 02:49:50;;;;;;;7.70;7.20;;;;;;;11.74;100.00;96605.06;7398956;19;20387;-88
2023/07/08 02:52:17;;;;;;;8.27;6.80;;;;;;;10.53;100.00;96393.66;7400297;19;20389;-88
2023/07/08 02:54:44;;;;;;;7.97;6.73;;;;;;;11.89;100.00;96595.78;7397898;19;20927;-87
2023/07/08 02:57:11;;;;;;;10.73;7.80;;;;;;;11.02;100.00;96444.13;7395552;19;20932;-88
2023/07/08 02:59:38;;;;;;;9.33;8.10;;;;;;;10.73;100.00;96389.47;7398012;19;20802;-88
2023/07/08 03:02:05;;;;;;;8.80;6.67;;;;;;;11.47;100.00;96528.84;7399574;19;20371;-88
2023/07/08 03:04:32;;;;;;;9.87;7.20;;;;;;;11.37;100.00;96478.97;7397140;19;20386;-87
2023/07/08 03:07:00;;;;;;;13.40;9.00;;;;;;;11.89;100.00;96556.06;7418200;19;20386;-88
2023/07/08 03:09:28;;;;;;;17.77;9.03;;;;;;;10.93;100.00;96394.69;7425859;19;20404;-88
2023/07/08 03:11:55;;;;;;;18.17;8.43;;;;;;;11.71;100.00;96522.84;7397305;19;20711;-88
2023/07/08 03:14:23;;;;;;;10.50;8.00;;;;;;;11.12;100.00;96449.00;7398813;19;20361;-88
2023/07/08 03:16:50;;;;;;;8.70;7.73;;;;;;;11.87;100.00;96537.03;7400052;19;20380;-88
2023/07/08 03:19:17;;;;;;;15.90;8.47;;;;;;;12.38;100.00;96599.28;7417220;19;20365;-89
2023/07/08 03:21:44;;;;;;;16.50;7.27;;;;;;;11.84;100.00;96517.28;7427144;19;20421;-89
2023/07/08 03:24:11;;;;;;;10.67;7.60;;;;;;;11.15;100.00;96443.84;7423363;19;20401;-89
2023/07/08 03:26:42;;;;;;;15.23;7.97;;;;;;;11.24;100.00;96451.69;7422929;19;20423;-88
2023/07/08 03:29:19;;;;;;;12.10;8.20;;;;;;;11.30;100.00;96539.59;7425566;19;20381;-92
2023/07/08 03:31:47;;;;;;;12.60;8.30;;;;;;;11.20;100.00;96516.94;7427714;19;20405;-89
2023/07/08 03:34:16;;;;;;;12.23;7.57;;;;;;;11.75;100.00;96582.00;7426472;19;20397;-89
2023/07/08 03:36:48;;;;;;;12.30;7.43;;;;;;;10.44;100.00;96342.75;7427202;19;20372;-88
2023/07/08 03:39:18;;;;;;;9.87;7.40;;;;;;;11.69;100.00;96551.53;7401564;19;20413;-89
2023/07/08 03:41:45;;;;;;;8.33;7.50;;;;;;;11.66;100.00;96550.31;7398050;19;20951;-89
2023/07/08 03:44:12;;;;;;;16.43;7.60;;;;;;;11.80;100.00;96550.06;7399558;19;20389;-89
2023/07/08 03:46:39;;;;;;;7.60;6.90;;;;;;;10.40;100.00;96389.41;7396411;19;20377;-88
2023/07/08 03:49:09;;;;;;;12.60;7.70;;;;;;;10.72;100.00;96475.97;7398855;19;20943;-88
2023/07/08 03:51:39;;;;;;;6.20;5.63;;;;;;;9.86;100.00;96307.41;7397851;19;20386;-91
2023/07/08 03:54:08;;;;;;;8.63;6.70;;;;;;;10.35;100.00;96387.75;7395994;19;20357;-89
2023/07/08 03:56:35;;;;;;;7.53;6.73;;;;;;;11.00;100.00;96526.47;7398555;19;20901;-86
2023/07/08 03:59:03;;;;;;;7.87;7.03;;;;;;;9.95;100.00;96405.84;7392681;19;20408;-89
2023/07/08 04:01:31;;;;;;;7.60;6.70;;;;;;;10.88;100.00;96550.22;7394309;19;20451;-89
2023/07/08 04:03:59;;;;;;;7.93;7.23;;;;;;;9.15;100.00;96316.81;7400068;19;20912;-88
2023/07/08 04:06:28;;;;;;;8.90;7.43;;;;;;;9.77;100.00;96416.53;7392929;19;20374;-88
2023/07/08 04:08:55;;;;;;;13.63;7.57;;;;;;;9.76;100.00;96403.63;7397064;19;20774;-90
2023/07/08 04:11:23;;;;;;;14.13;7.33;;;;;;;9.42;100.00;96291.84;7394529;19;20388;-89
2023/07/08 04:13:50;;;;;;;11.53;9.03;;;;;;;10.82;100.00;96461.59;7394927;19;20377;-89
2023/07/08 04:16:28;;;;;;;12.10;8.23;;;;;;;11.13;100.00;96541.31;7395077;19;20391;-89
2023/07/08 04:18:56;;;;;;;13.57;7.40;;;;;;;11.53;100.00;96591.88;7391933;19;20920;-89
2023/07/08 04:21:27;;;;;;;14.73;7.20;;;;;;;10.85;100.00;96427.31;7395091;19;20382;-89
2023/07/08 04:23:54;;;;;;;12.37;6.60;;;;;;;10.73;100.00;96392.13;7395215;19;20386;-89
2023/07/08 04:26:21;;;;;;;8.67;7.77;;;;;;;10.83;100.00;96421.59;7393635;19;20393;-89
2023/07/08 04:28:50;;;;;;;9.10;7.13;;;;;;;12.07;100.00;96556.63;7392204;19;20372;-89
2023/07/08 04:31:17;;;;;;;8.40;6.80;;;;;;;10.99;100.00;96397.94;7394144;19;20382;-89
2023/07/08 04:33:44;;;;;;;8.63;7.07;;;;;;;10.38;100.00;96352.75;7394955;19;20746;-88
2023/07/08 04:36:13;;;;;;;11.17;6.80;;;;;;;11.93;100.00;96524.38;7402308;19;20392;-89
2023/07/08 04:38:41;;;;;;;9.47;8.13;;;;;;;11.19;100.00;96404.25;7399491;19;20413;-89
2023/07/08 04:41:08;;;;;;;13.23;8.37;;;;;;;11.13;100.00;96395.00;7401973;19;20380;-89
2023/07/08 04:43:35;;;;;;;7.93;7.13;;;;;;;11.40;100.00;96394.38;7402051;19;20384;-89
2023/07/08 04:46:05;;;;;;;12.70;7.57;;;;;;;10.22;100.00;96283.09;7400856;19;20365;-89
2023/07/08 04:48:32;;;;;;;8.80;7.97;;;;;;;12.11;100.00;96534.41;7400148;19;20814;-87
2023/07/08 04:51:00;;;;;;;8.60;7.50;;;;;;;12.40;100.00;96570.53;7403484;19;20880;-87
2023/07/08 04:53:27;;;;;;;9.43;7.40;;;;;;;12.45;100.00;96585.47;7400818;19;20943;-87
2023/07/08 04:55:56;;;;;;;9.30;7.23;;;;;;;12.66;100.00;96628.56;7401130;19;20904;-87
2023/07/08 04:58:23;;;;;;;16.03;7.37;;;;;;;11.84;100.00;96443.09;7398991;19;20435;-89
2023/07/08 05:00:50;;;;;;;7.67;6.93;;;;;;;13.18;100.00;96585.41;7404748;19;20425;-89
2023/07/08 05:03:17;;;;;;;12.00;7.07;;;;;;;13.28;100.00;96622.13;7400495;19;20384;-88
2023/07/08 05:05:44;;;;;;;9.50;7.23;;;;;;;12.87;100.00;96532.94;7404627;19;20385;-89
2023/07/08 05:08:12;;;;;;;8.10;7.40;;;;;;;12.75;100.00;96442.75;7412835;19;20450;-89
2023/07/08 05:10:39;;;;;;;9.93;7.97;;;;;;;13.51;100.00;96504.75;7400774;19;20726;-87
2023/07/08 05:13:06;;;;;;;7.47;6.70;;;;;;;13.16;100.00;96443.47;7403160;19;20400;-88
2023/07/08 05:15:33;;;;;;;9.13;8.30;;;;;;;12.57;100.00;96341.47;7404397;19;20398;-88
2023/07/08 05:18:00;;;;;;;8.47;7.40;;;;;;;14.30;100.00;96603.94;7399148;19;20923;-88
2023/07/08 05:20:28;;;;;;;8.93;8.13;;;;;;;14.08;100.00;96565.41;7400023;19;20367;-89
2023/07/08 05:22:55;;;;;;;8.23;7.43;;;;;;;13.82;100.00;96494.13;7400522;19;20954;-89
2023/07/08 05:25:22;;;;;;;8.80;8.00;;;;;;;13.45;100.00;96443.09;7413223;19;20387;-91
2023/07/08 05:27:49;;;;;;;9.77;8.87;;;;;;;14.06;100.00;96572.19;7425626;19;20454;-90
2023/07/08 05:30:17;;;;;;;8.37;7.63;;;;;;;13.25;100.00;96415.69;7428977;19;20399;-87
2023/07/08 05:32:45;;;;;;;8.70;7.93;;;;;;;14.04;100.00;96498.09;7428386;19;20392;-88
2023/07/08 05:35:13;;;;;;;7.70;6.90;;;;;;;14.77;100.00;96603.94;7427640;19;20390;-90
2023/07/08 05:37:40;;;;;;;9.50;8.07;;;;;;;14.17;100.00;96504.88;7427153;19;20444;-88
2023/07/08 05:40:08;;;;;;;9.00;8.20;;;;;;;15.45;100.00;96649.91;7421193;19;20439;-87
2023/07/08 05:42:36;;;;;;;9.13;8.33;;;;;;;14.47;100.00;96497.19;7402637;19;20896;-87
2023/07/08 05:45:06;;;;;;;9.07;8.27;;;;;;;14.51;100.00;96499.94;7400154;19;20372;-87
2023/07/08 05:47:33;;;;;;;8.80;8.00;;;;;;;13.96;100.00;96323.56;7395571;19;20428;-87
2023/07/08 05:50:00;;;;;;;8.63;7.77;;;;;;;15.96;100.00;96610.56;7399067;19;20912;-87
2023/07/08 05:52:28;;;;;;;8.50;7.70;;;;;;;15.46;100.00;96566.94;7398870;19;20923;-87
2023/07/08 05:54:55;;;;;;;9.27;8.40;;;;;;;14.84;100.00;96432.19;7399278;19;20994;-87
2023/07/08 05:57:23;;;;;;;9.83;8.83;;;;;;;15.82;100.00;96589.75;7399148;19;20438;-88
2023/07/08 05:59:50;;;;;;;10.30;9.27;;;;;;;14.31;100.00;96366.09;7399494;19;20406;-88
2023/07/08 06:02:19;;;;;;;8.63;7.80;;;;;;;16.18;100.00;96601.81;7399061;19;20440;-87
2023/07/08 06:04:46;;;;;;;10.30;8.43;;;;;;;16.36;100.00;96570.09;7399686;19;20398;-87
2023/07/08 06:07:13;;;;;;;8.30;7.60;;;;;;;17.46;100.00;96675.13;7400870;19;20784;-87
2023/07/08 06:09:40;;;;;;;8.07;7.23;;;;;;;15.94;100.00;96373.56;7397624;19;20720;-87
2023/07/08 06:12:07;;;;;;;8.13;7.40;;;;;;;16.84;100.00;96448.38;7399295;19;20410;-87
2023/07/08 06:14:34;;;;;;;9.03;8.20;;;;;;;18.63;100.00;96690.97;7398817;19;20908;-87
2023/07/08 06:17:01;;;;;;;7.80;7.10;;;;;;;17.60;100.00;96482.75;7398773;19;20416;-87
2023/07/08 06:19:28;;;;;;;8.60;7.37;;;;;;;18.50;98.12;96580.66;7398868;19;20385;-88
2023/07/08 06:21:55;;;;;;;8.70;7.20;;;;;;;19.04;97.78;96646.91;7398284;19;20390;-87
2023/07/08 06:24:39;;;;;;;9.10;8.23;;;;;;;17.66;98.24;96473.28;7397488;19;20459;-87
2023/07/08 06:27:06;;;;;;;9.27;8.37;;;;;;;19.02;97.13;96630.44;7396631;19;20405;-88
2023/07/08 06:29:34;;;;;;;8.50;7.60;;;;;;;19.43;94.78;96649.81;7400976;19;20386;-90
2023/07/08 06:32:22;;;;;;;8.40;7.57;;;;;;;18.97;98.44;96604.00;7398152;19;20722;-89
2023/07/08 06:34:49;;;;;;;7.83;7.13;;;;;;;19.27;97.06;96633.28;7399312;19;20370;-89
2023/07/08 06:37:16;;;;;;;8.43;7.73;;;;;;;19.66;94.58;96625.44;7396759;19;20425;-88
2023/07/08 06:39:43;;;;;;;8.43;7.50;;;;;;;20.29;91.36;96631.34;7399212;19;20372;-88
2023/07/08 06:42:10;;;;;;;7.50;6.80;;;;;;;20.74;90.85;96670.19;7396217;19;20373;-88
2023/07/08 06:44:50;;;;;;;8.67;6.83;;;;;;;20.81;88.86;96648.66;7398759;19;20418;-88
2023/07/08 06:47:21;;;;;;;7.80;7.20;;;;;;;21.45;89.41;96688.94;7396160;19;20429;-88
2023/07/08 06:49:48;;;;;;;8.23;7.53;;;;;;;21.92;86.24;96691.50;7399400;19;20394;-89
2023/07/08 06:52:15;;;;;;;7.47;6.50;;;;;;;21.98;86.24;96674.53;7395624;19;20386;-89
2023/07/08 06:54:42;;;;;;;8.40;7.53;;;;;;;22.32;84.42;96680.19;7398992;19;20403;-88
2023/07/08 06:57:09;;;;;;;8.40;7.40;;;;;;;22.18;83.54;96621.00;7396486;19;20405;-88
2023/07/08 06:59:36;;;;;;;7.70;7.00;;;;;;;22.56;81.74;96680.38;7396231;19;20419;-88
2023/07/08 07:02:03;;;;;;;7.50;6.57;;;;;;;22.65;81.60;96661.84;7395966;19;20390;-89
2023/07/08 07:04:32;;;;;;;6.87;6.33;;;;;;;22.99;80.52;96676.25;7396464;19;20395;-88
2023/07/08 07:06:59;;;;;;;8.93;6.90;;;;;;;22.52;78.29;96563.75;7393788;19;20453;-88
2023/07/08 07:09:26;;;;;;;7.90;7.10;;;;;;;22.67;77.69;96546.28;7395786;19;20996;-89
2023/07/08 07:11:54;;;;;;;7.33;6.73;;;;;;;24.00;75.79;96678.66;7399250;19;20937;-89
2023/07/08 07:14:21;;;;;;;7.13;6.43;;;;;;;23.59;75.32;96593.91;7398425;19;20941;-88
2023/07/08 07:16:50;;;;;;;7.90;7.03;;;;;;;22.55;74.83;96487.47;7397556;19;20353;-88
2023/07/08 07:19:34;;;;;;;6.50;5.90;;;;;;;23.68;75.20;96557.56;7400436;19;20395;-88
2023/07/08 07:22:02;;;;;;;6.10;5.63;;;;;;;24.18;73.28;96627.88;7401362;19;20391;-90
2023/07/08 07:24:29;;;;;;;6.50;5.90;;;;;;;24.50;74.10;96659.09;7401133;19;20365;-88
2023/07/08 07:26:56;;;;;;;7.10;6.50;;;;;;;24.16;70.67;96611.28;7402995;19;20415;-88
2023/07/08 07:29:23;;;;;;;7.57;6.13;;;;;;;24.35;68.62;96675.53;7401388;19;20391;-88
2023/07/08 07:31:51;;;;;;;5.53;5.03;;;;;;;23.59;69.54;96539.13;7402695;19;20475;-88
2023/07/08 07:34:18;;;;;;;7.80;5.03;;;;;;;23.76;65.09;96570.53;7424146;19;20402;-89
2023/07/08 07:36:45;;;;;;;6.97;6.30;;;;;;;24.39;65.10;96592.44;7433121;19;20390;-91
2023/07/08 07:39:12;;;;;;;6.77;5.93;;;;;;;24.32;63.18;96554.72;7432041;19;20389;-91
2023/07/08 07:41:39;;;;;;;5.60;5.07;;;;;;;25.10;63.54;96652.72;7428737;19;20443;-91
2023/07/08 07:44:06;;;;;;;6.10;5.43;;;;;;;24.57;61.66;96577.84;7432302;19;20389;-92
2023/07/08 07:46:33;;;;;;;5.77;5.17;;;;;;;24.14;60.38;96514.41;7412192;19;20852;-88
2023/07/08 07:49:00;;;;;;;5.67;5.10;;;;;;;23.89;59.02;96460.75;7397878;19;20430;-88
2023/07/08 07:51:27;;;;;;;5.60;5.10;;;;;;;24.43;59.46;96513.97;7396307;19;20398;-88
2023/07/08 07:53:54;;;;;;;6.83;6.00;;;;;;;24.84;60.09;96604.84;7399598;19;20408;-88
2023/07/08 07:56:21;;;;;;;7.10;5.93;;;;;;;25.76;59.68;96643.00;7398580;19;20398;-88
2023/07/08 07:58:51;;;;;;;8.33;6.13;;;;;;;24.74;58.77;96485.59;7398115;19;20382;-88
2023/07/08 08:01:19;;;;;;;5.40;4.93;;;;;;;25.68;57.96;96603.69;7397974;19;20398;-88
2023/07/08 08:03:50;;;;;;;8.43;6.30;;;;;;;24.53;58.07;96455.47;7402393;19;20410;-90
2023/07/08 08:06:17;;;;;;;9.43;6.27;;;;;;;25.71;57.04;96628.00;7399403;19;20380;-90
2023/07/08 08:08:45;;;;;;;7.80;6.20;;;;;;;25.91;56.81;96595.50;7394602;19;20441;-88
2023/07/08 08:11:12;;;;;;;7.67;5.80;;;;;;;26.25;55.70;96635.00;7395942;19;20406;-88
2023/07/08 08:13:39;;;;;;;5.57;5.07;;;;;;;26.12;57.51;96630.25;7399346;19;20385;-89
2023/07/08 08:16:06;;;;;;;5.27;4.87;;;;;;;26.29;56.74;96633.72;7396970;19;20410;-89
2023/07/08 08:18:33;;;;;;;5.10;4.60;;;;;;;26.43;53.85;96643.53;7396864;19;20432;-89
2023/07/08 08:21:00;;;;;;;4.77;4.37;;;;;;;26.62;53.21;96631.09;7396600;19;20901;-89
2023/07/08 08:23:27;;;;;;;6.90;5.73;;;;;;;26.30;53.63;96534.94;7400608;19;20362;-89
2023/07/08 08:25:54;;;;;;;6.07;5.23;;;;;;;27.67;53.02;96672.28;7397738;19;20930;-90
2023/07/08 08:28:21;;;;;;;5.97;5.37;;;;;;;26.90;52.19;96573.38;7391962;19;20747;-89
2023/07/08 08:30:49;;;;;;;6.77;6.17;;;;;;;25.75;51.41;96438.28;7393484;19;20427;-89
2023/07/08 08:33:20;;;;;;;6.43;5.83;;;;;;;26.83;50.75;96599.94;7393775;19;20384;-90
2023/07/08 08:35:47;;;;;;;5.83;5.33;;;;;;;26.95;49.59;96637.25;7394483;19;20433;-91
2023/07/08 08:38:14;;;;;;;5.63;5.13;;;;;;;26.66;50.21;96544.94;7393305;19;20434;-90
2023/07/08 08:40:42;;;;;;;6.23;5.10;;;;;;;27.09;50.26;96631.47;7393416;19;20394;-89
2023/07/08 08:43:11;;;;;;;5.63;5.23;;;;;;;25.97;49.14;96549.66;7393585;19;20372;-87
2023/07/08 08:45:56;;;;;;;5.10;4.70;;;;;;;26.78;48.51;96596.56;7393368;19;20894;-87
2023/07/08 08:48:26;;;;;;;4.93;4.50;;;;;;;26.69;48.89;96561.13;7391894;19;20422;-87
2023/07/08 08:51:00;;;;;;;5.57;5.07;;;;;;;27.10;48.02;96563.16;7392576;19;20373;-88
2023/07/08 08:53:27;;;;;;;4.43;4.03;;;;;;;27.45;46.77;96653.03;7392911;19;20460;-89
2023/07/08 08:56:27;;;;;;;5.53;5.03;;;;;;;26.99;47.20;96616.97;7392490;19;20899;-88
2023/07/08 08:59:08;;;;;;;6.10;4.67;;;;;;;27.51;47.43;96694.81;7390416;19;20430;-89
2023/07/08 09:01:35;;;;;;;5.73;5.23;;;;;;;27.26;47.07;96657.44;7395265;19;20378;-90
2023/07/08 09:04:12;;;;;;;5.23;4.83;;;;;;;27.23;47.07;96619.47;7393474;19;20668;-89
2023/07/08 09:06:40;;;;;;;6.90;6.07;;;;;;;27.59;46.63;96657.31;7393647;19;20483;-88
2023/07/08 09:09:18;;;;;;;6.53;5.50;;;;;;;27.50;45.20;96638.16;7392640;19;20388;-87
2023/07/08 09:11:57;;;;;;;5.00;4.23;;;;;;;28.02;42.60;96689.53;7398181;19;20404;-87
2023/07/08 09:14:25;;;;;;;4.87;4.43;;;;;;;28.31;42.31;96694.16;7400888;19;20379;-88
2023/07/08 09:17:01;;;;;;;4.60;4.20;;;;;;;27.80;42.66;96683.94;7414315;19;20394;-89
2023/07/08 09:19:35;;;;;;;4.50;3.90;;;;;;;27.21;40.88;96606.31;7427962;19;20407;-90
2023/07/08 09:22:15;;;;;;;4.40;4.00;;;;;;;27.71;41.38;96629.44;7435658;19;20403;-92
2023/07/08 09:24:44;;;;;;;4.43;4.07;;;;;;;27.74;41.27;96693.03;7432059;19;20395;-88
2023/07/08 09:27:11;;;;;;;5.30;4.80;;;;;;;27.98;41.59;96691.59;7402550;19;20419;-87
2023/07/08 09:29:38;;;;;;;4.73;4.30;;;;;;;27.73;41.46;96618.13;7404398;19;20374;-88
2023/07/08 09:32:21;;;;;;;5.50;5.00;;;;;;;28.12;40.53;96674.84;7399904;19;20378;-88
2023/07/08 09:35:04;;;;;;;5.47;4.03;;;;;;;27.45;43.00;96650.31;7402846;19;20399;-88
2023/07/08 09:37:33;;;;;;;13.10;8.30;;;;;;;27.77;40.50;96643.25;7398575;19;20442;-87
2023/07/08 09:40:14;;;;;;;5.07;4.40;;;;;;;28.33;39.68;96661.84;7398977;19;20380;-87
2023/07/08 09:42:42;;;;;;;5.50;4.17;;;;;;;28.09;38.81;96691.28;7398841;19;20376;-88
2023/07/08 09:45:15;;;;;;;4.10;3.60;;;;;;;28.03;40.43;96682.13;7400151;19;20395;-88
2023/07/08 09:47:45;;;;;;;5.40;4.77;;;;;;;28.42;39.48;96679.03;7402189;19;20450;-88
2023/07/08 09:50:24;;;;;;;5.43;3.70;;;;;;;28.12;38.13;96674.84;7400536;19;20396;-91
2023/07/08 09:52:57;;;;;;;4.50;4.10;;;;;;;28.55;37.22;96681.75;7403145;19;20380;-91
2023/07/08 09:55:24;;;;;;;4.80;3.87;;;;;;;28.25;37.72;96661.28;7402096;19;20360;-91
2023/07/08 09:57:53;;;;;;;4.20;3.80;;;;;;;28.14;38.87;96637.09;7403346;19;20415;-91
2023/07/08 10:00:33;;;;;;;7.10;4.60;;;;;;;28.83;36.97;96680.84;7403828;19;20407;-91
2023/07/08 10:03:10;;;;;;;4.13;3.83;;;;;;;29.01;37.80;96660.50;7400066;19;20372;-88
2023/07/08 10:05:43;;;;;;;6.57;5.87;;;;;;;28.53;36.74;96670.56;7401644;19;20363;-88
2023/07/08 10:08:18;;;;;;;4.17;3.87;;;;;;;28.41;37.30;96676.75;7400704;19;20431;-88
2023/07/08 10:10:47;;;;;;;4.73;3.97;;;;;;;28.49;37.55;96680.78;7403603;19;20384;-88
2023/07/08 10:13:17;;;;;;;14.63;13.13;;;;;;;28.19;37.68;96573.28;7404025;19;20407;-88
2023/07/08 10:16:10;;;;;;;5.63;5.23;;;;;;;28.54;36.65;96656.50;7403756;19;20371;-88
2023/07/08 10:18:37;;;;;;;4.43;4.10;;;;;;;28.71;36.62;96669.97;7400185;19;20424;-88
2023/07/08 10:21:29;;;;;;;3.73;3.43;;;;;;;28.66;36.00;96692.31;7401156;19;20399;-88
2023/07/08 10:24:06;;;;;;;5.83;5.27;;;;;;;28.86;35.98;96668.34;7400066;19;20384;-91
2023/07/08 10:26:34;;;;;;;7.57;5.80;;;;;;;28.32;36.45;96608.66;7406086;19;20372;-91
2023/07/08 10:29:26;;;;;;;4.67;3.77;;;;;;;29.04;35.26;96684.13;7397747;19;20421;-91
2023/07/08 10:32:16;;;;;;;4.80;4.13;;;;;;;28.69;36.25;96632.31;7401625;19;20377;-90
2023/07/08 10:34:57;;;;;;;4.13;3.73;;;;;;;29.59;35.63;96690.84;7401571;19;20380;-92
2023/07/08 10:37:24;;;;;;;4.03;3.73;;;;;;;29.19;35.75;96678.97;7401027;19;20727;-91
2023/07/08 10:40:15;;;;;;;3.67;3.37;;;;;;;29.26;35.60;96695.09;7403305;19;20460;-91
2023/07/08 10:42:57;;;;;;;4.30;3.87;;;;;;;29.18;34.67;96672.00;7400748;19;20373;-90
2023/07/08 10:45:53;;;;;;;4.23;3.83;;;;;;;29.11;35.73;96692.03;7406214;19;20396;-91
2023/07/08 10:49:08;;;;;;;4.03;3.63;;;;;;;29.68;35.07;96682.72;7424803;19;20410;-91
2023/07/08 10:51:51;;;;;;;4.13;3.53;;;;;;;29.40;33.91;96649.03;7430312;19;20387;-88
2023/07/08 10:54:37;;;;;;;5.33;4.07;;;;;;;29.61;35.55;96684.94;7430570;19;20385;-92
2023/07/08 10:57:33;;;;;;;3.87;3.57;;;;;;;29.96;34.17;96704.72;7430064;19;20416;-92
2023/07/08 11:00:16;;;;;;;4.03;3.70;;;;;;;29.76;34.63;96702.31;7432395;19;20421;-90
2023/07/08 11:02:55;;;;;;;4.50;4.10;;;;;;;29.22;34.22;96692.47;7419904;19;20412;-90
2023/07/08 11:05:32;;;;;;;4.53;4.13;;;;;;;27.93;34.14;96550.75;7399560;19;20364;-90
2023/07/08 11:08:21;;;;;;;4.20;3.80;;;;;;;29.60;34.54;96700.53;7396974;19;20384;-91
2023/07/08 11:11:00;;;;;;;4.20;3.80;;;;;;;29.51;34.57;96694.25;7403661;19;20386;-91
2023/07/08 11:13:47;;;;;;;3.87;3.50;;;;;;;29.73;33.64;96662.31;7400028;19;20738;-91
2023/07/08 11:16:24;;;;;;;4.67;4.37;;;;;;;30.16;32.47;96688.03;7398728;19;20376;-91
2023/07/08 11:19:00;;;;;;;4.70;4.30;;;;;;;30.02;32.86;96694.75;7397487;19;20427;-91
2023/07/08 11:21:39;;;;;;;4.00;3.60;;;;;;;30.51;32.54;96688.66;7398323;19;20360;-91
2023/07/08 11:24:34;;;;;;;4.50;4.10;;;;;;;30.73;32.47;96678.44;7398384;19;20381;-90
2023/07/08 11:27:26;;;;;;;5.10;4.00;;;;;;;29.99;32.64;96650.03;7399313;19;20425;-91
2023/07/08 11:30:15;;;;;;;5.23;3.87;;;;;;;29.82;33.17;96667.81;7401441;19;20365;-90
2023/07/08 11:32:45;;;;;;;8.60;3.87;;;;;;;30.31;33.69;96661.72;7397374;19;20920;-91
2023/07/08 11:35:21;;;;;;;4.13;3.83;;;;;;;30.49;32.29;96656.34;7396499;19;20855;-91
2023/07/08 11:37:49;;;;;;;4.70;4.20;;;;;;;30.66;32.93;96643.22;7395171;19;20483;-91
2023/07/08 11:40:22;;;;;;;5.03;4.30;;;;;;;30.65;32.28;96640.94;7398469;19;20405;-91
2023/07/08 11:43:00;;;;;;;4.77;4.20;;;;;;;30.87;33.79;96685.31;7398101;19;20731;-91
2023/07/08 11:45:32;;;;;;;5.40;4.33;;;;;;;30.99;32.13;96626.31;7394357;19;20365;-90
2023/07/08 11:48:07;;;;;;;4.50;4.10;;;;;;;31.12;31.44;96684.31;7393608;19;20444;-91
2023/07/08 11:50:41;;;;;;;4.37;3.97;;;;;;;30.66;31.50;96620.63;7396660;19;20891;-91
2023/07/08 11:53:14;;;;;;;5.30;4.27;;;;;;;30.55;31.45;96664.69;7395273;19;20347;-91
2023/07/08 11:55:56;;;;;;;4.40;4.00;;;;;;;30.20;30.97;96647.75;7397372;19;20368;-90